Breckenridge, Colorado
Current Conditions -  °F | °C
As of 6:55 PM on Wednesday 26 Nov 2014 (Local Time) from KCCU Reporting Station
Broken Clouds Broken Clouds  
Wind Chill: 10°   Ceiling: 2700
Heat Index: 27°   Visibility: NA
Dew Point: 21°   Wind: 33mph
Humidity: 80%   Direction: 270°W
Pressure: 30.42"   Gusts: 41mph
Location:  39.48°N, 106.04°W
Report Text: KCCU 270155Z AUTO 27029G36KT BKN027 M03/M06 A3042 RMK AO2 PWINO
Loading
Personal Weather Stations






























Interactive Weather Map New forecast layout! Learn more

10-Day Weather Forecast

Advertisements
Track Severe Weather on mobile